Time;durP1;ratioP1;P1;durP2;ratioP2;P2;SDS_P1;SDS_P2;PMS_P1;PMS_P2;Temp;Humidity;BMP_temperature;BMP_pressure;BME280_temperature;BME280_humidity;BME280_pressure;Samples;Min_cycle;Max_cycle;Signal;HPM_P1;HPM_P2
2023/03/17 00:01:36;;;;;;;8.65;5.40;;;7.00;99.90;;;;;;5062550;28;20189;-39
2023/03/17 00:04:02;;;;;;;9.63;6.03;;;7.00;99.90;;;;;;5049621;28;20484;-44
2023/03/17 00:06:29;;;;;;;7.57;5.90;;;7.00;99.90;;;;;;5053728;28;20542;-44
2023/03/17 00:08:56;;;;;;;11.23;6.78;;;7.00;99.90;;;;;;5053487;28;20044;-40
2023/03/17 00:11:22;;;;;;;8.88;5.75;;;7.00;99.90;;;;;;5054255;28;20063;-43
2023/03/17 00:13:48;;;;;;;8.15;5.72;;;7.00;99.90;;;;;;5051433;28;20094;-46
2023/03/17 00:16:20;;;;;;;8.82;5.60;;;7.00;99.90;;;;;;5062441;28;20044;-42
2023/03/17 00:18:47;;;;;;;7.00;5.75;;;7.00;99.90;;;;;;5073737;28;20083;-40
2023/03/17 00:21:15;;;;;;;9.02;5.88;;;7.00;99.90;;;;;;5073593;28;20110;-42
2023/03/17 00:23:47;;;;;;;9.90;6.82;;;6.90;99.90;;;;;;5075951;28;20142;-42
2023/03/17 00:26:13;;;;;;;8.05;5.78;;;6.90;99.90;;;;;;5077976;28;20056;-44
2023/03/17 00:28:38;;;;;;;6.13;5.47;;;6.90;99.90;;;;;;5077202;28;20056;-46
2023/03/17 00:31:16;;;;;;;7.32;4.80;;;6.90;99.90;;;;;;5076233;28;20506;-42
2023/03/17 00:33:44;;;;;;;7.78;5.72;;;7.00;99.90;;;;;;5075587;28;20245;-41
2023/03/17 00:36:15;;;;;;;9.02;5.82;;;7.00;99.90;;;;;;5077685;28;20044;-46
2023/03/17 00:38:41;;;;;;;7.53;5.95;;;7.00;99.90;;;;;;5077360;28;20052;-43
2023/03/17 00:41:08;;;;;;;7.13;5.38;;;7.00;99.90;;;;;;5077737;28;20050;-38
2023/03/17 00:43:35;;;;;;;7.00;4.80;;;7.00;99.90;;;;;;5076714;28;20802;-41
2023/03/17 00:46:00;;;;;;;7.43;5.35;;;7.00;99.90;;;;;;5077125;28;20059;-42
2023/03/17 00:48:28;;;;;;;9.93;6.35;;;7.00;99.90;;;;;;5069473;28;20049;-42
2023/03/17 00:50:54;;;;;;;9.70;6.82;;;7.10;99.90;;;;;;5057841;28;20045;-46
2023/03/17 00:53:20;;;;;;;8.00;5.18;;;7.10;99.90;;;;;;5071641;28;20431;-44
2023/03/17 00:55:47;;;;;;;7.72;5.55;;;7.10;99.90;;;;;;5068076;28;20076;-41
2023/03/17 00:58:29;;;;;;;8.70;6.30;;;7.10;99.90;;;;;;5056905;28;20045;-41
2023/03/17 01:00:55;;;;;;;7.45;5.40;;;7.20;99.90;;;;;;5054931;28;20127;-46
2023/03/17 01:03:22;;;;;;;8.77;5.50;;;7.20;99.90;;;;;;5037621;28;20060;-47
2023/03/17 01:05:48;;;;;;;7.35;5.68;;;7.20;99.90;;;;;;5055008;28;20594;-39
2023/03/17 01:08:15;;;;;;;7.20;5.13;;;7.20;99.90;;;;;;5056634;28;20052;-42
2023/03/17 01:10:41;;;;;;;6.97;5.05;;;7.20;99.90;;;;;;5038461;28;20219;-45
2023/03/17 01:13:10;;;;;;;9.10;6.15;;;7.20;99.90;;;;;;5056028;28;20490;-39
2023/03/17 01:15:38;;;;;;;7.70;4.80;;;7.20;99.90;;;;;;5056789;28;20067;-42
2023/03/17 01:18:04;;;;;;;5.25;4.45;;;7.10;99.90;;;;;;5056822;28;20079;-43
2023/03/17 01:20:32;;;;;;;7.38;5.70;;;7.20;99.90;;;;;;5056585;28;20056;-42
2023/03/17 01:22:58;;;;;;;7.55;5.85;;;7.20;99.90;;;;;;5055434;28;20039;-39
2023/03/17 01:25:25;;;;;;;8.57;5.47;;;7.20;99.90;;;;;;5072792;28;20047;-46
2023/03/17 01:27:51;;;;;;;7.72;5.32;;;7.10;99.90;;;;;;5076330;28;20040;-48
2023/03/17 01:30:30;;;;;;;6.85;5.22;;;7.10;99.90;;;;;;5075607;28;20144;-45
2023/03/17 01:32:57;;;;;;;8.88;4.85;;;7.10;99.90;;;;;;5075464;28;20044;-41
2023/03/17 01:35:24;;;;;;;7.90;4.82;;;7.20;99.90;;;;;;5075551;28;20044;-43
2023/03/17 01:37:50;;;;;;;7.25;4.50;;;7.10;99.90;;;;;;5061573;28;20063;-46
2023/03/17 01:40:22;;;;;;;10.32;5.35;;;7.10;99.90;;;;;;5056238;28;20052;-49
2023/03/17 01:43:16;;;;;;;8.02;5.97;;;7.10;99.90;;;;;;5054505;28;20045;-39
2023/03/17 01:46:11;;;;;;;9.68;5.25;;;7.10;99.90;;;;;;5056094;28;20490;-40
2023/03/17 01:49:06;;;;;;;6.35;4.72;;;7.10;99.90;;;;;;5085085;27;20063;-43
2023/03/17 01:51:46;;;;;;;8.90;5.68;;;7.00;99.90;;;;;;5075850;28;20177;-43
2023/03/17 01:54:24;;;;;;;7.70;4.70;;;7.00;99.90;;;;;;5056104;28;20880;-40
2023/03/17 01:56:52;;;;;;;7.75;5.07;;;7.00;99.90;;;;;;5059152;28;20446;-42
2023/03/17 01:59:24;;;;;;;7.90;5.15;;;7.00;99.90;;;;;;5072985;28;20047;-47
2023/03/17 02:01:53;;;;;;;5.75;5.15;;;7.00;99.90;;;;;;5073375;28;20627;-45
2023/03/17 02:04:19;;;;;;;6.68;4.97;;;7.00;99.90;;;;;;5049138;28;20067;-45
2023/03/17 02:06:48;;;;;;;6.85;5.43;;;6.90;99.90;;;;;;5065276;28;20051;-43
2023/03/17 02:09:14;;;;;;;7.15;4.78;;;6.90;99.90;;;;;;5075436;28;20853;-44
2023/03/17 02:11:40;;;;;;;7.18;5.07;;;6.90;99.90;;;;;;5074695;28;20051;-48
2023/03/17 02:14:07;;;;;;;8.15;5.65;;;6.90;99.90;;;;;;5057825;28;20451;-46
2023/03/17 02:16:33;;;;;;;8.02;6.63;;;6.80;99.90;;;;;;5054488;28;20075;-43
2023/03/17 02:18:59;;;;;;;8.68;5.47;;;6.90;99.90;;;;;;5058192;28;20569;-41
2023/03/17 02:21:34;;;;;;;7.95;6.18;;;6.90;99.90;;;;;;5073697;28;20048;-45
2023/03/17 02:24:04;;;;;;;6.82;5.28;;;6.80;99.90;;;;;;5074563;28;20079;-38
2023/03/17 02:26:33;;;;;;;7.93;5.20;;;6.90;99.90;;;;;;5075495;28;20048;-41
2023/03/17 02:28:59;;;;;;;7.47;5.00;;;6.90;99.90;;;;;;5074978;28;20059;-40
2023/03/17 02:31:26;;;;;;;7.38;5.38;;;6.90;99.90;;;;;;5075247;28;20138;-42
2023/03/17 02:33:52;;;;;;;7.97;5.65;;;6.90;99.90;;;;;;5074052;28;20075;-43
2023/03/17 02:36:18;;;;;;;6.55;4.93;;;6.90;99.90;;;;;;5059270;28;20131;-48
2023/03/17 02:38:44;;;;;;;7.45;5.22;;;6.90;99.90;;;;;;5061429;28;20048;-50
2023/03/17 02:41:09;;;;;;;7.03;5.25;;;7.00;99.90;;;;;;5074748;28;20516;-47
2023/03/17 02:43:36;;;;;;;8.35;5.15;;;7.00;99.90;;;;;;5074393;28;20957;-43
2023/03/17 02:46:02;;;;;;;7.25;5.38;;;7.00;99.90;;;;;;5073660;28;20662;-39
2023/03/17 02:48:28;;;;;;;7.65;5.72;;;7.00;99.90;;;;;;5074560;28;20148;-42
2023/03/17 02:50:53;;;;;;;8.38;5.32;;;7.00;99.90;;;;;;5061686;28;20123;-39
2023/03/17 02:53:19;;;;;;;7.93;6.00;;;7.00;99.90;;;;;;5061585;28;20173;-39
2023/03/17 02:55:45;;;;;;;8.27;5.85;;;7.00;99.90;;;;;;5048411;28;20131;-38
2023/03/17 02:58:11;;;;;;;8.52;5.53;;;7.00;99.90;;;;;;5054194;28;20063;-51
2023/03/17 03:00:37;;;;;;;8.20;5.57;;;7.00;99.90;;;;;;5050707;28;20048;-46
2023/03/17 03:03:03;;;;;;;7.45;5.32;;;7.00;99.90;;;;;;5045563;28;20106;-48
2023/03/17 03:05:29;;;;;;;6.05;5.00;;;7.00;99.90;;;;;;5049309;28;20438;-44
2023/03/17 03:07:55;;;;;;;7.95;5.40;;;7.00;99.90;;;;;;5072264;28;20134;-41
2023/03/17 03:10:20;;;;;;;9.82;5.47;;;7.00;99.90;;;;;;5073967;28;20048;-43
2023/03/17 03:12:46;;;;;;;6.50;5.40;;;7.00;99.90;;;;;;5074016;28;20543;-42
2023/03/17 03:15:12;;;;;;;9.50;6.88;;;7.00;99.90;;;;;;5073965;28;20048;-42
2023/03/17 03:17:38;;;;;;;9.10;5.78;;;6.90;99.90;;;;;;5062241;28;20094;-42
2023/03/17 03:20:06;;;;;;;7.13;5.43;;;6.90;99.90;;;;;;5075548;28;20405;-45
2023/03/17 03:22:32;;;;;;;6.68;4.72;;;7.00;99.90;;;;;;5071518;28;20133;-42
2023/03/17 03:24:58;;;;;;;7.93;5.38;;;7.00;99.90;;;;;;5074443;28;20131;-43
2023/03/17 03:27:23;;;;;;;8.50;5.97;;;7.00;99.90;;;;;;5074236;28;20055;-45
2023/03/17 03:29:49;;;;;;;10.02;5.88;;;7.00;99.90;;;;;;5071732;28;20059;-41
2023/03/17 03:32:15;;;;;;;12.05;5.53;;;6.90;99.90;;;;;;5072735;28;20052;-39
2023/03/17 03:34:41;;;;;;;7.65;5.10;;;6.90;99.90;;;;;;5072753;28;20485;-43
2023/03/17 03:37:07;;;;;;;5.63;4.95;;;6.90;99.90;;;;;;5064900;28;20053;-39
2023/03/17 03:39:32;;;;;;;8.18;5.30;;;6.90;99.90;;;;;;5052066;28;20059;-44
2023/03/17 03:41:58;;;;;;;7.57;5.13;;;6.90;99.90;;;;;;5050815;28;20199;-46
2023/03/17 03:44:24;;;;;;;7.50;5.70;;;6.90;99.90;;;;;;5035719;28;20055;-48
2023/03/17 03:46:50;;;;;;;10.10;6.57;;;6.90;99.90;;;;;;5059962;28;20048;-43
2023/03/17 03:49:16;;;;;;;8.15;5.35;;;6.90;99.90;;;;;;5072919;28;20501;-44
2023/03/17 03:51:42;;;;;;;7.07;5.47;;;6.90;99.90;;;;;;5085598;28;20385;-44
2023/03/17 03:54:07;;;;;;;6.63;4.68;;;6.90;99.90;;;;;;5051920;28;20611;-38
2023/03/17 03:56:33;;;;;;;6.70;4.93;;;6.90;99.90;;;;;;5057059;28;20139;-45
2023/03/17 03:58:59;;;;;;;6.78;5.43;;;7.00;99.90;;;;;;5052913;28;20158;-46
2023/03/17 04:01:24;;;;;;;7.57;5.15;;;7.00;99.90;;;;;;5077375;28;20052;-45
2023/03/17 04:03:50;;;;;;;8.20;5.55;;;7.00;99.90;;;;;;5055619;28;20498;-43
2023/03/17 04:06:16;;;;;;;8.68;5.20;;;7.00;99.90;;;;;;5057506;28;20044;-44
2023/03/17 04:08:42;;;;;;;8.75;5.57;;;7.00;99.90;;;;;;5069217;28;20409;-45
2023/03/17 04:11:07;;;;;;;7.28;4.80;;;7.00;99.90;;;;;;5064852;28;20055;-42
2023/03/17 04:13:33;;;;;;;8.10;5.20;;;7.00;99.90;;;;;;5075776;28;20101;-44
2023/03/17 04:16:00;;;;;;;6.85;4.85;;;6.90;99.90;;;;;;5077900;28;20063;-45
2023/03/17 04:18:26;;;;;;;7.13;4.88;;;6.90;99.90;;;;;;5077573;28;20105;-38
2023/03/17 04:20:51;;;;;;;7.13;5.68;;;6.90;99.90;;;;;;5077000;28;20566;-39
2023/03/17 04:23:17;;;;;;;9.50;5.57;;;6.90;99.90;;;;;;5077007;28;20339;-42
2023/03/17 04:25:43;;;;;;;7.10;5.32;;;6.80;99.90;;;;;;5077664;28;20237;-43
2023/03/17 04:28:10;;;;;;;7.97;5.22;;;6.80;99.90;;;;;;5077603;28;20106;-47
2023/03/17 04:30:36;;;;;;;7.00;5.55;;;6.80;99.90;;;;;;5064154;28;20447;-42
2023/03/17 04:33:02;;;;;;;8.63;6.25;;;6.80;99.90;;;;;;5076287;28;20052;-44
2023/03/17 04:35:28;;;;;;;6.43;4.95;;;6.80;99.90;;;;;;5070621;28;20147;-41
2023/03/17 04:37:53;;;;;;;6.32;4.85;;;6.80;99.90;;;;;;5055301;28;20378;-40
2023/03/17 04:40:20;;;;;;;7.13;5.15;;;6.70;99.90;;;;;;5063361;28;20213;-44
2023/03/17 04:42:45;;;;;;;6.82;5.15;;;6.70;99.90;;;;;;5076779;28;20040;-43
2023/03/17 04:45:14;;;;;;;9.13;4.97;;;6.80;99.90;;;;;;5077168;28;20059;-41
2023/03/17 04:47:40;;;;;;;6.80;5.07;;;6.80;99.90;;;;;;5076613;28;20438;-49
2023/03/17 04:50:07;;;;;;;7.57;5.18;;;6.80;99.90;;;;;;5043557;28;20087;-42
2023/03/17 04:52:34;;;;;;;5.60;4.63;;;6.80;99.90;;;;;;5055332;28;20044;-43
2023/03/17 04:55:00;;;;;;;7.13;4.55;;;6.80;99.90;;;;;;5056614;28;20045;-46
2023/03/17 04:57:25;;;;;;;6.88;4.80;;;6.80;99.90;;;;;;5051522;28;20053;-41
2023/03/17 04:59:51;;;;;;;7.47;5.07;;;6.80;99.90;;;;;;5063683;28;20080;-46
2023/03/17 05:02:17;;;;;;;7.43;5.95;;;6.80;99.90;;;;;;5056762;28;20041;-48
2023/03/17 05:04:44;;;;;;;5.70;4.50;;;6.90;99.90;;;;;;5045306;28;20064;-45
2023/03/17 05:07:11;;;;;;;7.45;4.40;;;6.90;99.90;;;;;;5068035;28;20110;-48
2023/03/17 05:09:37;;;;;;;6.45;4.60;;;6.90;99.90;;;;;;5075653;28;20052;-40
2023/03/17 05:12:03;;;;;;;7.50;4.78;;;6.80;99.90;;;;;;5075345;28;20048;-44
2023/03/17 05:14:28;;;;;;;7.78;4.68;;;6.80;99.90;;;;;;5076470;28;20060;-44
2023/03/17 05:16:54;;;;;;;6.95;5.68;;;6.80;99.90;;;;;;5076439;28;20579;-42
2023/03/17 05:19:20;;;;;;;7.75;5.10;;;6.80;99.90;;;;;;5075204;28;20524;-48
2023/03/17 05:21:46;;;;;;;7.82;4.65;;;6.80;99.90;;;;;;5074520;28;20048;-44
2023/03/17 05:24:12;;;;;;;5.90;5.13;;;6.80;99.90;;;;;;5076030;28;20127;-39
2023/03/17 05:26:39;;;;;;;5.57;4.28;;;6.80;99.90;;;;;;5076551;28;20043;-43
2023/03/17 05:29:05;;;;;;;7.78;4.90;;;6.80;99.90;;;;;;5076077;28;20052;-45
2023/03/17 05:31:31;;;;;;;5.88;4.53;;;6.90;99.90;;;;;;5075992;28;20043;-43
2023/03/17 05:33:57;;;;;;;5.85;4.50;;;6.80;99.90;;;;;;5075972;28;20048;-41
2023/03/17 05:36:23;;;;;;;6.70;4.80;;;6.90;99.90;;;;;;5074390;28;20048;-47
2023/03/17 05:38:49;;;;;;;7.53;4.80;;;6.80;99.90;;;;;;5038338;28;20064;-44
2023/03/17 05:41:15;;;;;;;6.22;4.55;;;6.90;99.90;;;;;;5055488;28;20147;-44
2023/03/17 05:43:41;;;;;;;6.05;4.57;;;6.90;99.90;;;;;;5054908;28;20043;-44
2023/03/17 05:46:08;;;;;;;5.60;4.43;;;6.90;99.90;;;;;;5056421;28;20078;-45
2023/03/17 05:48:34;;;;;;;6.68;5.00;;;6.90;99.90;;;;;;5055640;28;20439;-45
2023/03/17 05:51:00;;;;;;;6.20;5.25;;;6.90;99.90;;;;;;5055325;28;20593;-40
2023/03/17 05:53:25;;;;;;;8.65;6.03;;;6.90;99.90;;;;;;5054627;28;20048;-44
2023/03/17 05:55:51;;;;;;;6.93;5.15;;;6.80;99.90;;;;;;5050892;28;20071;-38
2023/03/17 05:58:18;;;;;;;6.13;4.60;;;6.80;99.90;;;;;;5055538;28;20071;-47
2023/03/17 06:00:44;;;;;;;7.15;4.38;;;6.90;99.90;;;;;;5054843;28;20053;-43
2023/03/17 06:03:10;;;;;;;7.43;4.72;;;6.90;99.90;;;;;;5047291;28;20049;-46
2023/03/17 06:05:36;;;;;;;9.05;5.20;;;6.90;99.90;;;;;;5051818;28;20076;-44
2023/03/17 06:08:03;;;;;;;7.40;4.57;;;6.90;99.90;;;;;;5037016;28;20045;-40
2023/03/17 06:10:29;;;;;;;5.75;4.45;;;6.90;99.90;;;;;;5049679;28;20280;-43
2023/03/17 06:12:55;;;;;;;7.32;4.75;;;6.90;99.90;;;;;;5054022;28;20054;-48
2023/03/17 06:15:21;;;;;;;5.40;4.32;;;6.90;99.90;;;;;;5055444;28;20098;-47
2023/03/17 06:17:46;;;;;;;8.90;4.65;;;6.90;99.90;;;;;;5054929;28;20048;-47
2023/03/17 06:20:13;;;;;;;7.30;4.95;;;6.90;99.90;;;;;;5055320;28;20044;-42
2023/03/17 06:22:39;;;;;;;4.88;4.38;;;6.90;99.90;;;;;;5052624;28;20572;-47
2023/03/17 06:25:05;;;;;;;6.63;5.03;;;6.90;99.90;;;;;;5055693;28;20080;-46
2023/03/17 06:27:31;;;;;;;6.22;4.72;;;6.90;99.90;;;;;;5055227;28;20167;-45
2023/03/17 06:29:58;;;;;;;6.97;4.65;;;7.00;99.90;;;;;;5054959;28;20084;-40
2023/03/17 06:32:24;;;;;;;7.03;4.80;;;7.00;99.90;;;;;;5053576;28;20048;-45
2023/03/17 06:34:50;;;;;;;6.18;4.53;;;7.00;99.90;;;;;;5055328;28;20499;-42
2023/03/17 06:37:16;;;;;;;6.45;4.75;;;7.00;99.90;;;;;;5042936;28;20124;-44
2023/03/17 06:39:42;;;;;;;5.18;4.07;;;7.00;99.90;;;;;;5053481;28;20060;-38
2023/03/17 06:42:08;;;;;;;6.07;4.55;;;7.10;99.90;;;;;;5054998;28;20041;-38
2023/03/17 06:44:35;;;;;;;6.25;4.43;;;7.00;99.90;;;;;;5055851;28;20059;-46
2023/03/17 06:47:01;;;;;;;5.95;4.18;;;7.10;99.90;;;;;;5055334;28;20411;-38
2023/03/17 06:49:27;;;;;;;5.88;4.63;;;7.10;99.90;;;;;;5054765;28;20131;-41
2023/03/17 06:51:53;;;;;;;6.55;4.55;;;7.10;99.90;;;;;;5053453;28;20045;-43
2023/03/17 06:54:20;;;;;;;6.10;4.43;;;7.20;99.90;;;;;;5054729;28;20053;-46
2023/03/17 06:56:46;;;;;;;5.47;4.53;;;7.20;99.90;;;;;;5051080;28;20044;-45
2023/03/17 06:59:12;;;;;;;7.93;4.95;;;7.20;99.90;;;;;;5054867;28;20052;-45
2023/03/17 07:01:39;;;;;;;6.57;5.05;;;7.30;99.90;;;;;;5054581;28;20051;-50
2023/03/17 07:04:05;;;;;;;8.02;5.00;;;7.40;99.90;;;;;;5046908;28;20049;-44
2023/03/17 07:06:32;;;;;;;6.85;4.63;;;7.50;99.90;;;;;;5060552;28;20055;-41
2023/03/17 07:08:58;;;;;;;8.52;5.15;;;7.60;99.90;;;;;;5074468;28;20089;-39
2023/03/17 07:11:25;;;;;;;7.38;4.90;;;7.70;99.90;;;;;;5072633;28;20040;-44
2023/03/17 07:13:54;;;;;;;7.63;5.32;;;7.70;99.90;;;;;;5074106;28;20452;-41
2023/03/17 07:16:20;;;;;;;6.68;5.40;;;7.80;99.90;;;;;;5074203;28;20087;-48
2023/03/17 07:18:46;;;;;;;6.40;5.13;;;8.00;99.90;;;;;;5053812;28;20491;-41
2023/03/17 07:21:11;;;;;;;5.93;4.75;;;8.30;99.90;;;;;;5051318;28;20060;-45
2023/03/17 07:23:37;;;;;;;6.40;4.60;;;8.90;99.90;;;;;;5053392;28;20033;-42
2023/03/17 07:26:03;;;;;;;7.95;4.40;;;9.20;99.90;;;;;;5053378;28;20049;-39
2023/03/17 07:28:29;;;;;;;7.75;4.88;;;9.30;99.90;;;;;;5053452;28;20603;-42
2023/03/17 07:30:56;;;;;;;10.88;5.20;;;9.30;99.90;;;;;;5053062;28;20044;-43
2023/03/17 07:33:23;;;;;;;7.13;5.00;;;9.10;99.90;;;;;;5052044;28;20048;-40
2023/03/17 07:35:50;;;;;;;7.72;4.50;;;9.10;99.90;;;;;;5052528;28;20575;-45
2023/03/17 07:38:17;;;;;;;7.22;4.82;;;9.00;99.90;;;;;;5050886;28;20044;-45
2023/03/17 07:40:46;;;;;;;5.68;4.20;;;8.90;99.90;;;;;;5054110;28;20037;-43
2023/03/17 07:43:13;;;;;;;5.40;4.43;;;8.90;99.90;;;;;;5051905;28;20091;-42
2023/03/17 07:45:39;;;;;;;7.22;4.47;;;8.90;99.90;;;;;;5052075;28;20602;-50
2023/03/17 07:48:05;;;;;;;5.75;4.25;;;8.90;99.90;;;;;;5054017;28;20045;-42
2023/03/17 07:50:35;;;;;;;6.63;4.53;;;8.90;99.90;;;;;;5053791;28;20135;-46
2023/03/17 07:53:02;;;;;;;7.47;5.22;;;8.90;99.90;;;;;;5053041;28;20044;-43
2023/03/17 07:55:28;;;;;;;7.18;4.45;;;8.90;99.90;;;;;;5052898;28;20123;-39
2023/03/17 07:57:54;;;;;;;6.65;4.60;;;8.80;99.90;;;;;;5054161;28;20094;-49
2023/03/17 08:00:20;;;;;;;5.78;4.47;;;8.90;99.90;;;;;;5054373;28;20048;-46
2023/03/17 08:02:46;;;;;;;5.55;4.15;;;8.90;99.90;;;;;;5053446;28;20045;-40
2023/03/17 08:05:13;;;;;;;5.78;4.47;;;9.00;99.90;;;;;;5052602;28;20054;-41
2023/03/17 08:07:39;;;;;;;7.15;5.00;;;9.00;99.90;;;;;;5054596;28;20151;-49
2023/03/17 08:10:06;;;;;;;7.22;5.35;;;9.00;99.90;;;;;;5041719;28;20045;-47
2023/03/17 08:12:33;;;;;;;6.55;4.65;;;9.00;99.90;;;;;;5039569;28;20518;-42
2023/03/17 08:14:58;;;;;;;7.80;4.70;;;9.10;99.90;;;;;;5045069;28;20359;-47
2023/03/17 08:17:27;;;;;;;9.43;5.55;;;9.10;99.90;;;;;;5045578;28;20456;-49
2023/03/17 08:19:53;;;;;;;8.45;4.88;;;9.10;99.90;;;;;;5066190;28;20079;-41
2023/03/17 08:22:19;;;;;;;6.15;4.32;;;9.10;99.90;;;;;;5034197;28;20041;-45
2023/03/17 08:24:45;;;;;;;6.97;4.78;;;9.20;99.90;;;;;;5031905;28;20041;-40
2023/03/17 08:27:11;;;;;;;7.05;5.10;;;9.20;99.90;;;;;;5038160;28;20502;-47
2023/03/17 08:29:37;;;;;;;8.23;5.18;;;9.40;99.90;;;;;;5040905;28;20495;-40
2023/03/17 08:32:03;;;;;;;8.48;4.75;;;9.60;99.90;;;;;;5047300;28;20118;-43
2023/03/17 08:34:29;;;;;;;7.28;4.82;;;10.00;99.90;;;;;;5052121;28;20139;-43
2023/03/17 08:36:55;;;;;;;7.90;5.40;;;10.30;99.90;;;;;;5049324;28;20494;-46
2023/03/17 08:39:21;;;;;;;6.63;4.85;;;10.60;99.90;;;;;;5053241;28;20059;-46
2023/03/17 08:41:46;;;;;;;6.85;5.20;;;10.90;99.90;;;;;;5051382;28;20048;-46
2023/03/17 08:44:13;;;;;;;9.63;5.63;;;11.00;99.90;;;;;;5046901;28;20051;-42
2023/03/17 08:46:39;;;;;;;8.57;4.68;;;11.10;99.90;;;;;;5050547;28;20565;-47
2023/03/17 08:49:06;;;;;;;8.82;4.72;;;11.20;99.90;;;;;;5051330;28;20546;-41
2023/03/17 08:51:34;;;;;;;8.63;4.50;;;11.40;99.90;;;;;;5038870;28;20085;-44
2023/03/17 08:54:01;;;;;;;9.13;5.03;;;11.40;99.90;;;;;;5051901;28;20136;-47
2023/03/17 08:56:27;;;;;;;9.73;5.32;;;11.50;99.90;;;;;;5046797;28;20904;-44
2023/03/17 08:58:53;;;;;;;6.68;4.85;;;11.60;99.90;;;;;;5054720;28;20048;-48
2023/03/17 09:01:20;;;;;;;8.50;5.60;;;11.70;99.90;;;;;;5058453;28;20048;-45
2023/03/17 09:03:46;;;;;;;7.05;4.80;;;11.90;99.90;;;;;;5058444;28;20040;-40
2023/03/17 09:06:12;;;;;;;12.13;6.13;;;11.90;99.90;;;;;;5056927;28;20101;-46
2023/03/17 09:08:43;;;;;;;7.80;5.78;;;12.00;99.90;;;;;;5055640;28;20395;-45
2023/03/17 09:11:19;;;;;;;11.88;6.65;;;12.00;99.90;;;;;;5072696;28;20044;-48
2023/03/17 09:13:46;;;;;;;11.23;6.95;;;12.00;99.90;;;;;;5076048;28;20101;-44
2023/03/17 09:16:13;;;;;;;10.68;6.40;;;12.10;99.90;;;;;;5076694;28;20044;-44
2023/03/17 09:18:39;;;;;;;10.98;7.50;;;12.20;99.90;;;;;;5076614;28;20048;-49
2023/03/17 09:21:06;;;;;;;10.40;5.97;;;12.30;99.90;;;;;;5076006;28;20051;-45
2023/03/17 09:23:32;;;;;;;11.18;6.45;;;12.30;99.90;;;;;;5075865;28;20131;-42
2023/03/17 09:25:58;;;;;;;11.18;6.28;;;12.40;99.90;;;;;;5076115;28;20043;-46
2023/03/17 09:28:24;;;;;;;9.00;5.22;;;12.40;99.90;;;;;;5076220;28;20040;-51
2023/03/17 09:30:50;;;;;;;7.20;5.10;;;12.50;99.90;;;;;;5075479;28;20071;-47
2023/03/17 09:33:16;;;;;;;9.63;5.57;;;12.50;99.90;;;;;;5075490;28;20502;-45
2023/03/17 09:35:43;;;;;;;6.22;3.97;;;12.60;99.90;;;;;;5060518;28;20048;-48
2023/03/17 09:38:09;;;;;;;9.07;5.20;;;12.80;99.90;;;;;;5053334;28;20037;-49
2023/03/17 09:40:46;;;;;;;9.50;5.30;;;12.90;99.90;;;;;;5055796;28;20155;-40
2023/03/17 09:43:25;;;;;;;10.38;5.80;;;13.00;99.90;;;;;;5051903;28;20123;-46
2023/03/17 09:45:51;;;;;;;7.85;4.90;;;13.10;99.90;;;;;;5053177;28;20075;-49
2023/03/17 09:48:19;;;;;;;10.50;6.15;;;13.20;99.90;;;;;;5054329;28;20110;-46
2023/03/17 09:50:48;;;;;;;8.18;6.05;;;13.30;99.90;;;;;;5050517;28;20480;-45
2023/03/17 09:53:58;;;;;;;6.70;5.25;;;13.50;99.90;;;;;;5053650;28;20060;-48
2023/03/17 09:56:27;;;;;;;9.57;5.95;;;13.60;99.90;;;;;;5009498;28;20106;-52
2023/03/17 09:58:59;;;;;;;7.70;5.05;;;13.80;99.90;;;;;;5011410;28;20160;-43
2023/03/17 10:01:26;;;;;;;6.13;4.90;;;14.00;99.90;;;;;;5010719;28;20054;-44
2023/03/17 10:03:53;;;;;;;8.73;5.78;;;14.00;99.90;;;;;;5011823;28;20053;-45
2023/03/17 10:06:33;;;;;;;9.48;5.22;;;14.00;99.90;;;;;;4995830;28;20077;-48
2023/03/17 10:09:17;;;;;;;8.35;5.40;;;13.90;99.90;;;;;;5011763;28;20560;-49
2023/03/17 10:11:47;;;;;;;8.07;5.30;;;14.00;99.90;;;;;;5018430;28;20474;-46
2023/03/17 10:14:40;;;;;;;7.75;6.28;;;13.90;99.90;;;;;;5031540;28;20576;-42
2023/03/17 10:17:22;;;;;;;7.15;5.47;;;13.80;99.90;;;;;;5019620;28;20057;-46
2023/03/17 10:19:59;;;;;;;12.57;5.68;;;13.90;99.90;;;;;;5008057;28;20128;-44
2023/03/17 10:22:38;;;;;;;11.27;6.05;;;13.80;99.90;;;;;;5017313;28;20139;-45
2023/03/17 10:25:25;;;;;;;12.65;6.75;;;13.80;99.90;;;;;;5015155;28;20073;-48
2023/03/17 10:27:58;;;;;;;7.55;5.60;;;13.90;99.90;;;;;;5031494;28;20138;-44
2023/03/17 10:30:30;;;;;;;12.35;5.93;;;14.00;99.90;;;;;;5041728;28;20066;-47
2023/03/17 10:32:59;;;;;;;9.68;5.50;;;14.10;99.90;;;;;;5064107;28;20102;-44
2023/03/17 10:35:25;;;;;;;7.82;6.15;;;14.10;99.90;;;;;;5069310;28;20052;-51
2023/03/17 10:37:50;;;;;;;10.55;5.75;;;14.20;99.90;;;;;;5056863;28;20048;-46
2023/03/17 10:40:24;;;;;;;7.18;5.22;;;14.30;99.90;;;;;;5069123;28;20920;-46
2023/03/17 10:43:00;;;;;;;6.63;5.07;;;14.40;99.90;;;;;;5064487;28;20120;-45
2023/03/17 10:45:34;;;;;;;10.88;5.60;;;14.50;99.90;;;;;;5073957;28;20056;-50
2023/03/17 10:48:03;;;;;;;7.68;5.80;;;14.70;99.90;;;;;;5074466;28;20050;-46
2023/03/17 10:50:35;;;;;;;7.32;5.65;;;14.80;99.90;;;;;;5060904;28;20215;-45
2023/03/17 10:53:07;;;;;;;8.60;5.22;;;14.90;99.90;;;;;;5063440;28;20056;-50
2023/03/17 10:55:51;;;;;;;9.65;5.78;;;14.80;99.90;;;;;;5049562;28;21307;-46
2023/03/17 10:58:50;;;;;;;8.68;5.80;;;14.60;99.90;;;;;;5051408;28;20056;-44
2023/03/17 11:01:41;;;;;;;7.35;6.03;;;14.60;99.90;;;;;;5050259;28;20531;-46
2023/03/17 11:04:38;;;;;;;7.78;6.03;;;14.80;99.90;;;;;;5052069;28;20157;-43
2023/03/17 11:07:37;;;;;;;8.82;5.40;;;14.90;99.90;;;;;;5047853;28;20099;-48
2023/03/17 11:10:13;;;;;;;7.25;6.13;;;15.00;99.90;;;;;;5008431;28;20060;-44
2023/03/17 11:12:41;;;;;;;7.30;5.75;;;15.10;99.90;;;;;;5011250;28;20060;-51
2023/03/17 11:15:16;;;;;;;10.27;5.93;;;15.20;99.90;;;;;;5012555;28;20114;-44
2023/03/17 11:17:58;;;;;;;7.75;5.88;;;15.20;99.90;;;;;;5028189;28;20566;-45
2023/03/17 11:20:32;;;;;;;7.97;5.95;;;15.30;99.90;;;;;;5030308;28;20053;-51
2023/03/17 11:23:22;;;;;;;9.77;6.97;;;15.30;99.90;;;;;;5029065;28;20811;-45
2023/03/17 11:26:07;;;;;;;8.73;5.95;;;15.40;99.90;;;;;;5026087;28;20060;-43
2023/03/17 11:28:39;;;;;;;9.52;6.78;;;15.30;99.90;;;;;;4995365;28;20088;-46
2023/03/17 11:31:23;;;;;;;9.77;6.93;;;15.40;99.90;;;;;;5018847;28;20156;-42
2023/03/17 11:34:04;;;;;;;8.52;6.93;;;15.40;99.90;;;;;;5030043;28;20084;-46
2023/03/17 11:37:09;;;;;;;12.10;7.05;;;15.40;99.90;;;;;;5026037;28;20876;-43
2023/03/17 11:39:55;;;;;;;9.48;7.25;;;15.50;99.90;;;;;;5009878;28;20107;-44
2023/03/17 11:42:39;;;;;;;11.68;7.22;;;15.40;99.90;;;;;;4995161;28;20502;-46
2023/03/17 11:45:08;;;;;;;10.75;8.93;;;15.30;99.90;;;;;;5012706;28;20080;-45
2023/03/17 11:48:01;;;;;;;10.10;8.05;;;15.30;99.90;;;;;;5043454;28;20888;-48
2023/03/17 11:50:44;;;;;;;11.48;8.23;;;15.30;99.90;;;;;;5053354;28;20064;-48
2023/03/17 11:53:24;;;;;;;11.40;7.20;;;15.30;99.90;;;;;;5052651;28;20094;-51
2023/03/17 11:55:57;;;;;;;11.38;6.95;;;15.50;99.90;;;;;;5048537;28;20111;-47
2023/03/17 11:58:22;;;;;;;8.98;7.85;;;15.50;99.90;;;;;;5040467;28;20181;-43
2023/03/17 12:00:56;;;;;;;8.77;7.72;;;15.30;99.90;;;;;;5050704;28;20871;-42
2023/03/17 12:03:27;;;;;;;;;;;15.30;99.90;;;;;;5048635;28;20866;-43
2023/03/17 12:05:59;;;;;;;11.25;7.03;;;15.30;99.90;;;;;;5052675;28;20011;-46
2023/03/17 12:08:32;;;;;;;9.93;7.93;;;15.30;99.90;;;;;;5072084;28;20137;-45
2023/03/17 12:11:01;;;;;;;10.23;7.00;;;15.30;99.90;;;;;;5068642;28;20048;-41
2023/03/17 12:13:50;;;;;;;10.50;7.45;;;15.40;99.90;;;;;;5061800;28;20358;-40
2023/03/17 12:16:26;;;;;;;18.33;8.88;;;15.50;99.90;;;;;;5052951;28;20049;-49
2023/03/17 12:19:02;;;;;;;108.68;34.28;;;15.70;99.90;;;;;;5068274;28;20066;-45
2023/03/17 12:21:49;;;;;;;1155.22;164.30;;;15.80;99.90;;;;;;5066524;28;20056;-48
2023/03/17 12:24:37;;;;;;;20.33;11.82;;;14.00;99.90;;;;;;5074409;28;20048;-46
2023/03/17 12:27:11;;;;;;;24.33;12.98;;;13.20;99.90;;;;;;5075771;28;20087;-45
2023/03/17 12:29:48;;;;;;;43.80;17.25;;;13.00;99.90;;;;;;5076720;28;20063;-46
2023/03/17 12:32:52;;;;;;;21.63;11.57;;;13.10;99.90;;;;;;5074853;28;20043;-45
2023/03/17 12:35:32;;;;;;;11.73;9.43;;;12.90;99.90;;;;;;5076589;28;20044;-48
2023/03/17 12:38:01;;;;;;;11.35;9.23;;;13.20;99.90;;;;;;5050318;28;20052;-44
2023/03/17 12:40:54;;;;;;;11.85;8.18;;;13.20;99.90;;;;;;5047924;28;20533;-44
2023/03/17 12:43:39;;;;;;;14.45;8.52;;;13.30;99.90;;;;;;5051663;28;20115;-44
2023/03/17 12:46:23;;;;;;;9.55;7.97;;;13.50;99.90;;;;;;5047748;28;20040;-48
2023/03/17 12:48:56;;;;;;;14.25;9.65;;;13.60;99.90;;;;;;5047829;28;20498;-43
2023/03/17 12:51:42;;;;;;;;;;;14.00;99.90;;;;;;5051628;28;20346;-46
2023/03/17 12:54:20;;;;;;;11.43;8.23;;;14.50;99.90;;;;;;5053040;28;19929;-44
2023/03/17 12:56:48;;;;;;;11.63;9.65;;;14.60;99.90;;;;;;5053682;28;20040;-50
2023/03/17 12:59:23;;;;;;;11.15;8.93;;;14.70;99.90;;;;;;5049864;28;20510;-45
2023/03/17 13:02:05;;;;;;;12.35;8.73;;;14.70;99.90;;;;;;5048605;28;20230;-43
2023/03/17 13:04:34;;;;;;;11.93;7.97;;;14.70;99.90;;;;;;5046667;28;20043;-46
2023/03/17 13:07:16;;;;;;;12.63;9.25;;;14.50;99.90;;;;;;5044490;28;20091;-46